Time;durP1;ratioP1;P1;durP2;ratioP2;P2;SDS_P1;SDS_P2;PMS_P1;PMS_P2;Temp;Humidity;BMP_temperature;BMP_pressure;BME280_temperature;BME280_humidity;BME280_pressure;Samples;Min_cycle;Max_cycle;Signal;HPM_P1;HPM_P2
2022/04/18 00:00:16;;;;;;;25.07;23.60;;;;;;;;;;5117092;28;20499;-86
2022/04/18 00:02:43;;;;;;;27.27;25.57;;;;;;;;;;5117297;28;20436;-86
2022/04/18 00:05:12;;;;;;;25.03;23.30;;;;;;;;;;5117496;28;20443;-86
2022/04/18 00:07:40;;;;;;;24.73;23.13;;;;;;;;;;5117630;28;20902;-87
2022/04/18 00:10:07;;;;;;;25.37;23.77;;;;;;;;;;5117656;28;20425;-86
2022/04/18 00:12:35;;;;;;;25.00;23.30;;;;;;;;;;5117394;28;20505;-86
2022/04/18 00:15:02;;;;;;;24.90;23.30;;;;;;;;;;5116857;28;20954;-86
2022/04/18 00:17:29;;;;;;;25.77;23.97;;;;;;;;;;5117299;28;20433;-86
2022/04/18 00:19:57;;;;;;;25.40;23.80;;;;;;;;;;5116871;28;20456;-86
2022/04/18 00:22:25;;;;;;;25.37;23.77;;;;;;;;;;5117158;28;20437;-86
2022/04/18 00:24:53;;;;;;;26.17;24.67;;;;;;;;;;5117053;28;20831;-86
2022/04/18 00:27:20;;;;;;;25.60;23.80;;;;;;;;;;5116921;28;20915;-86
2022/04/18 00:29:51;;;;;;;25.77;24.07;;;;;;;;;;5117111;28;20512;-87
2022/04/18 00:32:18;;;;;;;24.80;23.30;;;;;;;;;;5117195;27;20512;-86
2022/04/18 00:34:46;;;;;;;25.20;23.63;;;;;;;;;;5116622;28;20429;-86
2022/04/18 00:37:13;;;;;;;26.07;24.03;;;;;;;;;;5115519;28;20493;-86
2022/04/18 00:39:42;;;;;;;25.23;23.63;;;;;;;;;;5116473;28;20521;-86
2022/04/18 00:42:09;;;;;;;25.67;23.97;;;;;;;;;;5117027;28;20440;-86
2022/04/18 00:44:37;;;;;;;25.73;23.83;;;;;;;;;;5116551;28;20734;-86
2022/04/18 00:47:04;;;;;;;24.83;23.23;;;;;;;;;;5116676;28;20507;-86
2022/04/18 00:49:33;;;;;;;24.70;23.00;;;;;;;;;;5116791;28;20447;-86
2022/04/18 00:52:01;;;;;;;23.93;22.53;;;;;;;;;;5116502;28;20436;-86
2022/04/18 00:54:28;;;;;;;24.93;23.33;;;;;;;;;;5116255;28;20433;-86
2022/04/18 00:56:57;;;;;;;24.57;23.07;;;;;;;;;;5116592;28;20543;-86
2022/04/18 00:59:24;;;;;;;25.50;23.80;;;;;;;;;;5116121;28;20448;-86
2022/04/18 01:01:52;;;;;;;25.30;23.70;;;;;;;;;;5115421;28;20436;-86
2022/04/18 01:04:19;;;;;;;25.13;23.70;;;;;;;;;;5116075;28;20486;-86
2022/04/18 01:06:46;;;;;;;24.40;22.90;;;;;;;;;;5116327;28;20755;-86
2022/04/18 01:09:14;;;;;;;24.20;22.70;;;;;;;;;;5115896;28;20900;-86
2022/04/18 01:11:41;;;;;;;24.23;22.63;;;;;;;;;;5116355;28;20432;-86
2022/04/18 01:14:10;;;;;;;24.10;22.70;;;;;;;;;;5116520;28;20436;-86
2022/04/18 01:16:38;;;;;;;24.70;23.20;;;;;;;;;;5115946;28;20475;-87
2022/04/18 01:19:05;;;;;;;24.17;22.70;;;;;;;;;;5116056;28;20742;-84
2022/04/18 01:21:34;;;;;;;25.17;23.57;;;;;;;;;;5116095;28;20909;-86
2022/04/18 01:28:58;;;;;;;24.33;22.57;;;;;;;;;;5116457;28;20828;-87
2022/04/18 01:29:38;;;;;;;24.00;22.60;;;;;;;;;;5072641;28;20434;-87
2022/04/18 01:32:06;;;;;;;24.07;22.67;;;;;;;;;;5073054;28;20561;-86
2022/04/18 01:34:34;;;;;;;24.43;22.93;;;;;;;;;;5073024;28;20540;-86
2022/04/18 01:37:02;;;;;;;23.83;22.37;;;;;;;;;;5072959;28;20409;-86
2022/04/18 01:39:30;;;;;;;23.30;22.00;;;;;;;;;;5073262;28;20905;-86
2022/04/18 01:41:57;;;;;;;24.53;22.93;;;;;;;;;;5073211;28;20425;-86
2022/04/18 01:44:24;;;;;;;24.30;22.77;;;;;;;;;;5072841;28;20434;-87
2022/04/18 01:46:52;;;;;;;25.50;23.80;;;;;;;;;;5056055;28;20420;-86
2022/04/18 01:49:19;;;;;;;23.50;22.10;;;;;;;;;;5072808;28;20500;-87
2022/04/18 01:51:47;;;;;;;24.90;23.30;;;;;;;;;;5072772;28;20919;-87
2022/04/18 01:54:18;;;;;;;23.00;21.70;;;;;;;;;;5072853;28;20428;-87
2022/04/18 01:56:46;;;;;;;24.27;22.67;;;;;;;;;;5072830;28;20522;-87
2022/04/18 01:59:13;;;;;;;24.53;22.93;;;;;;;;;;5072673;28;20471;-87
2022/04/18 02:01:40;;;;;;;23.50;22.20;;;;;;;;;;5072762;28;20973;-86
2022/04/18 02:04:08;;;;;;;23.97;22.50;;;;;;;;;;5072430;28;20529;-87
2022/04/18 02:06:35;;;;;;;24.10;22.67;;;;;;;;;;5099761;28;20502;-87
2022/04/18 02:09:03;;;;;;;24.40;22.80;;;;;;;;;;5115705;28;20494;-87
2022/04/18 02:11:31;;;;;;;23.73;22.30;;;;;;;;;;5115127;28;20849;-87
2022/04/18 02:13:59;;;;;;;25.07;23.43;;;;;;;;;;5114746;28;20437;-87
2022/04/18 02:16:28;;;;;;;24.73;23.13;;;;;;;;;;5114726;28;20481;-87
2022/04/18 02:18:55;;;;;;;25.53;23.93;;;;;;;;;;5115204;28;20453;-87
2022/04/18 02:21:23;;;;;;;25.05;23.35;;;;;;;;;;5114916;28;20503;-87
2022/04/18 02:23:51;;;;;;;23.60;22.20;;;;;;;;;;5114036;28;20201;-87
2022/04/18 02:26:18;;;;;;;23.93;22.53;;;;;;;;;;5114649;28;20425;-87
2022/04/18 02:28:47;;;;;;;24.60;23.10;;;;;;;;;;5114914;28;20445;-87
2022/04/18 02:31:15;;;;;;;25.15;23.65;;;;;;;;;;5113423;28;20456;-87
2022/04/18 02:33:42;;;;;;;25.00;23.30;;;;;;;;;;5114810;28;20194;-87
2022/04/18 02:36:09;;;;;;;24.50;23.00;;;;;;;;;;5114469;28;20183;-87
2022/04/18 02:38:37;;;;;;;23.90;22.40;;;;;;;;;;5114321;28;20926;-87
2022/04/18 02:41:04;;;;;;;23.07;21.67;;;;;;;;;;5114708;28;20480;-87
2022/04/18 02:43:32;;;;;;;23.53;22.23;;;;;;;;;;5114723;28;20494;-87
2022/04/18 02:46:00;;;;;;;25.20;23.40;;;;;;;;;;5113566;28;20433;-87
2022/04/18 02:48:29;;;;;;;22.80;21.40;;;;;;;;;;5114317;28;20186;-87
2022/04/18 02:50:57;;;;;;;23.63;22.13;;;;;;;;;;5114468;28;20412;-86
2022/04/18 02:53:24;;;;;;;23.50;21.90;;;;;;;;;;5114428;28;20411;-87
2022/04/18 02:55:51;;;;;;;23.63;22.13;;;;;;;;;;5114287;28;20414;-87
2022/04/18 02:58:19;;;;;;;23.27;21.87;;;;;;;;;;5114518;28;20202;-87
2022/04/18 03:00:46;;;;;;;23.80;22.20;;;;;;;;;;5114038;28;20477;-87
2022/04/18 03:03:15;;;;;;;24.80;23.13;;;;;;;;;;5114143;28;20444;-87
2022/04/18 03:05:43;;;;;;;23.70;22.30;;;;;;;;;;5114491;28;20468;-87
2022/04/18 03:08:10;;;;;;;23.00;21.40;;;;;;;;;;5114354;28;20237;-87
2022/04/18 03:13:22;;;;;;;24.20;22.70;;;;;;;;;;5114379;28;20399;-87
2022/04/18 03:15:49;;;;;;;23.30;22.00;;;;;;;;;;5114142;28;20480;-87
2022/04/18 03:18:18;;;;;;;24.07;22.67;;;;;;;;;;5114327;28;20191;-86
2022/04/18 03:20:46;;;;;;;23.63;22.33;;;;;;;;;;5113864;28;20969;-87
2022/04/18 03:23:13;;;;;;;22.93;21.63;;;;;;;;;;5112886;28;20616;-87
2022/04/18 03:25:40;;;;;;;23.75;22.45;;;;;;;;;;5115056;28;20903;-87
2022/04/18 03:28:09;;;;;;;23.70;22.33;;;;;;;;;;5118262;28;20187;-87
2022/04/18 03:30:36;;;;;;;23.97;22.57;;;;;;;;;;5116888;28;20468;-87
2022/04/18 03:33:04;;;;;;;23.93;22.53;;;;;;;;;;5118233;28;20816;-87
2022/04/18 03:35:33;;;;;;;23.80;22.30;;;;;;;;;;5118089;28;20515;-86
2022/04/18 03:40:45;;;;;;;23.00;21.70;;;;;;;;;;5118055;28;20491;-87
2022/04/18 03:43:13;;;;;;;23.30;22.00;;;;;;;;;;5118022;28;20476;-87
2022/04/18 03:45:40;;;;;;;22.88;21.58;;;;;;;;;;5117852;28;20498;-85
2022/04/18 03:48:08;;;;;;;23.73;22.38;;;;;;;;;;5116628;28;20202;-87
2022/04/18 03:50:37;;;;;;;23.20;21.77;;;;;;;;;;5118015;28;20191;-87
2022/04/18 03:53:04;;;;;;;22.57;21.27;;;;;;;;;;5117773;28;20453;-87
2022/04/18 03:55:32;;;;;;;23.55;21.90;;;;;;;;;;5117856;28;20432;-87
2022/04/18 03:57:59;;;;;;;23.70;22.40;;;;;;;;;;5117741;28;20183;-87
2022/04/18 04:00:27;;;;;;;23.20;21.90;;;;;;;;;;5116682;28;20454;-87
2022/04/18 04:02:54;;;;;;;24.00;22.40;;;;;;;;;;5118063;28;20437;-87
2022/04/18 04:05:22;;;;;;;24.17;22.58;;;;;;;;;;5116612;28;20439;-87
2022/04/18 04:07:51;;;;;;;24.98;23.38;;;;;;;;;;5117462;28;20209;-87
2022/04/18 04:10:18;;;;;;;22.52;21.20;;;;;;;;;;5117567;28;20236;-87
2022/04/18 04:12:45;;;;;;;22.20;20.90;;;;;;;;;;5117541;28;20194;-86
2022/04/18 04:15:13;;;;;;;22.85;21.45;;;;;;;;;;5117014;28;20415;-87
2022/04/18 04:17:40;;;;;;;23.00;21.45;;;;;;;;;;5117388;28;20544;-87
2022/04/18 04:20:08;;;;;;;22.77;21.37;;;;;;;;;;5099022;28;20721;-87
2022/04/18 04:22:35;;;;;;;21.90;20.70;;;;;;;;;;5117320;27;20433;-88
2022/04/18 04:25:04;;;;;;;22.93;21.53;;;;;;;;;;5117355;28;20263;-87
2022/04/18 04:27:32;;;;;;;23.70;22.27;;;;;;;;;;5117399;28;20433;-87
2022/04/18 04:29:59;;;;;;;23.20;21.88;;;;;;;;;;5117131;28;21056;-88
2022/04/18 04:32:27;;;;;;;22.80;21.52;;;;;;;;;;5117014;28;20636;-88
2022/04/18 04:34:54;;;;;;;23.35;22.05;;;;;;;;;;5117129;28;20243;-87
2022/04/18 04:37:21;;;;;;;23.77;22.30;;;;;;;;;;5116885;28;20202;-87
2022/04/18 04:39:49;;;;;;;22.80;21.40;;;;;;;;;;5116741;28;20472;-88
2022/04/18 04:42:19;;;;;;;21.60;20.50;;;;;;;;;;5116934;28;20446;-88
2022/04/18 04:44:46;;;;;;;21.67;20.48;;;;;;;;;;5116961;28;20469;-87
2022/04/18 04:47:14;;;;;;;22.90;21.50;;;;;;;;;;5116665;28;20244;-88
2022/04/18 04:49:41;;;;;;;23.20;21.60;;;;;;;;;;5116873;28;20443;-87
2022/04/18 04:52:09;;;;;;;21.58;20.17;;;;;;;;;;5116387;28;20446;-87
2022/04/18 04:54:36;;;;;;;22.08;20.77;;;;;;;;;;5116721;28;20187;-88
2022/04/18 04:57:04;;;;;;;22.75;21.45;;;;;;;;;;5116973;28;20190;-87
2022/04/18 04:59:33;;;;;;;23.02;21.55;;;;;;;;;;5117118;28;20243;-87
2022/04/18 05:02:00;;;;;;;22.20;20.80;;;;;;;;;;5116452;28;20222;-86
2022/04/18 05:04:28;;;;;;;21.95;20.42;;;;;;;;;;5116036;28;21001;-88
2022/04/18 05:06:55;;;;;;;21.50;20.30;;;;;;;;;;5115198;28;20194;-87
2022/04/18 05:09:23;;;;;;;21.75;20.45;;;;;;;;;;5116755;28;20936;-87
2022/04/18 05:11:50;;;;;;;20.90;19.67;;;;;;;;;;5116306;28;20194;-88
2022/04/18 05:14:17;;;;;;;22.27;20.97;;;;;;;;;;5115299;28;20409;-87
2022/04/18 05:16:46;;;;;;;21.65;20.45;;;;;;;;;;5115583;28;20933;-87
2022/04/18 05:19:14;;;;;;;21.93;20.70;;;;;;;;;;5115168;28;20256;-88
2022/04/18 05:21:42;;;;;;;23.50;22.10;;;;;;;;;;5115785;28;20977;-88
2022/04/18 05:24:09;;;;;;;22.57;21.37;;;;;;;;;;5116118;28;20187;-88
2022/04/18 05:26:36;;;;;;;23.17;21.87;;;;;;;;;;5115809;28;20419;-87
2022/04/18 05:29:04;;;;;;;22.50;21.27;;;;;;;;;;5115646;28;20433;-88
2022/04/18 05:31:31;;;;;;;23.53;22.30;;;;;;;;;;5115926;28;20437;-87
2022/04/18 05:34:00;;;;;;;22.87;21.67;;;;;;;;;;5115986;28;20415;-87
2022/04/18 05:36:29;;;;;;;22.97;21.73;;;;;;;;;;5115605;28;20423;-87
2022/04/18 05:38:56;;;;;;;23.10;21.80;;;;;;;;;;5115439;28;20416;-87
2022/04/18 05:41:24;;;;;;;21.83;20.63;;;;;;;;;;5115669;27;20492;-88
2022/04/18 05:43:51;;;;;;;21.97;20.67;;;;;;;;;;5114824;28;20248;-88
2022/04/18 05:46:18;;;;;;;21.63;20.50;;;;;;;;;;5115375;28;20410;-88
2022/04/18 05:48:46;;;;;;;22.93;21.57;;;;;;;;;;5115269;28;20474;-87
2022/04/18 05:51:15;;;;;;;22.10;20.80;;;;;;;;;;5115483;28;20428;-87
2022/04/18 05:53:43;;;;;;;23.50;22.00;;;;;;;;;;5114706;28;20444;-87
2022/04/18 05:56:10;;;;;;;22.47;20.93;;;;;;;;;;5115536;28;20411;-87
2022/04/18 05:58:40;;;;;;;22.80;21.50;;;;;;;;;;5114237;28;20949;-87
2022/04/18 06:01:07;;;;;;;21.93;20.63;;;;;;;;;;5115081;28;20468;-87
2022/04/18 06:03:35;;;;;;;23.30;21.67;;;;;;;;;;5115480;28;20412;-87
2022/04/18 06:06:02;;;;;;;21.90;20.60;;;;;;;;;;5115180;28;20444;-86
2022/04/18 06:08:31;;;;;;;22.30;21.00;;;;;;;;;;5097200;28;20494;-87
2022/04/18 06:10:58;;;;;;;22.27;20.97;;;;;;;;;;5115166;28;20437;-87
2022/04/18 06:13:26;;;;;;;21.73;20.43;;;;;;;;;;5113632;28;20485;-85
2022/04/18 06:15:53;;;;;;;23.20;21.90;;;;;;;;;;5114686;28;20480;-87
2022/04/18 06:18:21;;;;;;;22.33;20.93;;;;;;;;;;5113740;28;20416;-87
2022/04/18 06:20:48;;;;;;;22.90;21.50;;;;;;;;;;5114925;28;20472;-85
2022/04/18 06:23:16;;;;;;;22.10;20.40;;;;;;;;;;5114403;27;20426;-85
2022/04/18 06:25:45;;;;;;;22.30;20.83;;;;;;;;;;5113364;28;20934;-86
2022/04/18 06:28:13;;;;;;;22.00;20.80;;;;;;;;;;5114992;28;20407;-85
2022/04/18 06:30:40;;;;;;;22.30;21.00;;;;;;;;;;5114407;28;20461;-88
2022/04/18 06:33:11;;;;;;;22.10;20.80;;;;;;;;;;5114492;28;20432;-84
2022/04/18 06:35:41;;;;;;;23.00;21.27;;;;;;;;;;5114313;28;20447;-84
2022/04/18 06:38:09;;;;;;;24.80;23.20;;;;;;;;;;5113672;28;20476;-84
2022/04/18 06:40:36;;;;;;;22.30;21.10;;;;;;;;;;5113999;28;20507;-84
2022/04/18 06:43:05;;;;;;;22.27;21.07;;;;;;;;;;5114015;28;20481;-84
2022/04/18 06:45:32;;;;;;;23.13;21.73;;;;;;;;;;5113809;28;20460;-83
2022/04/18 06:48:00;;;;;;;22.73;21.43;;;;;;;;;;5113622;28;21253;-84
2022/04/18 06:50:27;;;;;;;22.17;20.90;;;;;;;;;;5113845;28;20506;-83
2022/04/18 06:52:54;;;;;;;22.37;20.97;;;;;;;;;;5113757;28;20411;-83
2022/04/18 06:55:22;;;;;;;23.20;21.90;;;;;;;;;;5113253;28;20412;-82
2022/04/18 06:57:48;;;;;;;22.17;20.87;;;;;;;;;;5113368;28;20472;-84
2022/04/18 07:00:18;;;;;;;22.50;21.20;;;;;;;;;;5114041;28;20424;-84
2022/04/18 07:02:46;;;;;;;22.20;20.90;;;;;;;;;;5116351;28;20484;-84
2022/04/18 07:05:14;;;;;;;22.37;20.90;;;;;;;;;;5116103;28;20456;-84
2022/04/18 07:07:42;;;;;;;21.20;20.10;;;;;;;;;;5117561;28;20411;-83
2022/04/18 07:10:10;;;;;;;23.07;21.77;;;;;;;;;;5117754;28;20484;-83
2022/04/18 07:12:37;;;;;;;21.45;20.15;;;;;;;;;;5103361;28;20509;-84
2022/04/18 07:15:05;;;;;;;21.47;20.27;;;;;;;;;;5117509;28;20203;-86
2022/04/18 07:17:34;;;;;;;22.23;21.03;;;;;;;;;;5120470;28;20490;-87
2022/04/18 07:20:01;;;;;;;21.90;20.60;;;;;;;;;;5117369;28;20419;-84
2022/04/18 07:22:28;;;;;;;22.50;21.20;;;;;;;;;;5119394;28;20462;-86
2022/04/18 07:24:59;;;;;;;22.33;20.93;;;;;;;;;;5116727;28;20433;-86
2022/04/18 07:27:26;;;;;;;22.60;21.30;;;;;;;;;;5117942;28;20458;-87
2022/04/18 07:29:55;;;;;;;22.60;21.40;;;;;;;;;;5118117;28;20864;-88
2022/04/18 07:32:22;;;;;;;22.17;20.97;;;;;;;;;;5119836;28;20429;-90
2022/04/18 07:34:51;;;;;;;23.03;21.73;;;;;;;;;;5118036;28;20448;-88
2022/04/18 07:37:18;;;;;;;23.33;22.03;;;;;;;;;;5117545;28;20436;-90
2022/04/18 07:39:46;;;;;;;21.90;20.70;;;;;;;;;;5116916;28;20432;-89
2022/04/18 07:42:13;;;;;;;22.93;21.33;;;;;;;;;;5117675;28;20982;-87
2022/04/18 07:44:40;;;;;;;22.87;21.57;;;;;;;;;;5117022;28;20749;-85
2022/04/18 07:47:08;;;;;;;23.57;22.17;;;;;;;;;;5117992;28;20508;-88
2022/04/18 07:49:35;;;;;;;22.90;21.60;;;;;;;;;;5118032;28;20460;-91
2022/04/18 07:52:04;;;;;;;24.30;22.80;;;;;;;;;;5118107;27;20431;-91
2022/04/18 07:54:31;;;;;;;23.53;22.10;;;;;;;;;;5117833;27;20415;-93
2022/04/18 07:56:59;;;;;;;23.70;22.10;;;;;;;;;;5117482;28;20421;-92
2022/04/18 07:59:26;;;;;;;22.40;21.20;;;;;;;;;;5117856;28;20415;-86
2022/04/18 08:01:54;;;;;;;22.97;21.67;;;;;;;;;;5112747;27;20544;-87
2022/04/18 08:04:21;;;;;;;23.00;21.60;;;;;;;;;;5117905;28;20472;-89
2022/04/18 08:06:48;;;;;;;22.20;21.00;;;;;;;;;;5118497;28;20490;-89
2022/04/18 08:09:17;;;;;;;22.67;21.17;;;;;;;;;;5118314;28;20407;-90
2022/04/18 08:11:45;;;;;;;22.60;21.40;;;;;;;;;;5117643;27;20909;-90
2022/04/18 08:14:12;;;;;;;23.37;22.03;;;;;;;;;;5118049;28;20437;-87
2022/04/18 08:16:40;;;;;;;22.77;21.47;;;;;;;;;;5116386;28;20516;-87
2022/04/18 08:19:08;;;;;;;23.33;21.83;;;;;;;;;;5117986;28;20436;-88
2022/04/18 08:21:35;;;;;;;22.70;21.40;;;;;;;;;;5117916;28;20468;-86
2022/04/18 08:24:02;;;;;;;23.13;21.83;;;;;;;;;;5116000;28;20906;-82
2022/04/18 08:26:31;;;;;;;23.30;21.90;;;;;;;;;;5116842;28;20446;-91
2022/04/18 08:28:59;;;;;;;22.73;21.43;;;;;;;;;;5112417;28;20461;-93
2022/04/18 08:31:27;;;;;;;23.00;21.60;;;;;;;;;;5101212;28;20447;-93
2022/04/18 08:33:55;;;;;;;22.67;21.27;;;;;;;;;;5102553;28;20450;-93
2022/04/18 08:36:22;;;;;;;22.90;21.60;;;;;;;;;;5104601;28;21005;-93
2022/04/18 08:38:50;;;;;;;22.53;21.13;;;;;;;;;;5101684;28;20449;-93
2022/04/18 08:41:20;;;;;;;23.63;22.17;;;;;;;;;;5100353;28;20420;-92
2022/04/18 08:43:49;;;;;;;22.40;21.10;;;;;;;;;;5103066;28;20432;-92
2022/04/18 08:46:18;;;;;;;23.80;22.30;;;;;;;;;;5101141;28;20404;-93
2022/04/18 08:54:15;;;;;;;22.73;21.43;;;;;;;;;;5102374;28;20426;-90
2022/04/18 08:56:43;;;;;;;22.93;21.63;;;;;;;;;;5103463;28;20453;-90
2022/04/18 08:59:11;;;;;;;23.40;22.10;;;;;;;;;;5101181;28;20453;-90
2022/04/18 09:01:47;;;;;;;23.30;21.80;;;;;;;;;;5101710;28;20505;-90
2022/04/18 09:04:15;;;;;;;23.13;21.83;;;;;;;;;;5100445;28;20982;-91
2022/04/18 09:06:42;;;;;;;22.40;21.10;;;;;;;;;;5100142;28;20942;-90
2022/04/18 09:09:10;;;;;;;23.20;21.83;;;;;;;;;;5104340;28;20952;-90
2022/04/18 09:11:40;;;;;;;23.10;21.70;;;;;;;;;;5102272;28;20453;-90
2022/04/18 09:14:08;;;;;;;22.53;21.27;;;;;;;;;;5103608;28;20449;-91
2022/04/18 09:16:37;;;;;;;23.67;22.27;;;;;;;;;;5103757;28;20485;-90
2022/04/18 09:19:09;;;;;;;23.27;21.87;;;;;;;;;;5102291;28;20450;-91
2022/04/18 09:21:37;;;;;;;23.37;21.87;;;;;;;;;;5101629;28;20448;-90
2022/04/18 09:24:06;;;;;;;23.30;21.90;;;;;;;;;;5099935;28;20434;-90
2022/04/18 09:26:33;;;;;;;22.77;21.37;;;;;;;;;;5099846;28;20431;-90
2022/04/18 09:29:05;;;;;;;23.10;21.80;;;;;;;;;;5100353;28;20917;-91
2022/04/18 09:31:41;;;;;;;22.50;21.13;;;;;;;;;;5100749;28;20905;-91
2022/04/18 09:34:09;;;;;;;23.17;21.80;;;;;;;;;;5102272;28;20435;-90
2022/04/18 09:36:36;;;;;;;23.87;22.47;;;;;;;;;;5101096;28;20510;-89
2022/04/18 09:39:03;;;;;;;22.77;21.47;;;;;;;;;;5099909;28;20448;-91
2022/04/18 09:41:31;;;;;;;22.67;21.33;;;;;;;;;;5101594;28;20435;-90
2022/04/18 09:43:59;;;;;;;22.73;21.23;;;;;;;;;;5100933;28;20988;-90
2022/04/18 09:46:27;;;;;;;23.10;21.70;;;;;;;;;;5099992;28;20474;-91
2022/04/18 09:49:02;;;;;;;22.70;21.40;;;;;;;;;;5098731;28;20428;-90
2022/04/18 09:51:34;;;;;;;22.83;21.63;;;;;;;;;;5099128;28;20415;-89
2022/04/18 09:54:01;;;;;;;23.20;21.80;;;;;;;;;;5102155;28;20420;-91
2022/04/18 09:56:28;;;;;;;22.37;21.10;;;;;;;;;;5100117;28;20441;-91
2022/04/18 09:58:58;;;;;;;23.00;21.60;;;;;;;;;;5098508;28;20457;-90
2022/04/18 10:01:26;;;;;;;22.57;21.30;;;;;;;;;;5099938;28;20840;-90
2022/04/18 10:03:53;;;;;;;23.27;21.87;;;;;;;;;;5097534;28;20504;-90
2022/04/18 10:06:22;;;;;;;22.73;21.43;;;;;;;;;;5097709;28;20437;-90
2022/04/18 10:08:52;;;;;;;23.07;21.67;;;;;;;;;;5103682;28;20452;-89
2022/04/18 10:11:20;;;;;;;23.40;22.00;;;;;;;;;;5101481;28;20519;-90
2022/04/18 10:13:48;;;;;;;23.47;22.00;;;;;;;;;;5101914;28;20451;-91
2022/04/18 10:16:16;;;;;;;27.23;25.60;;;;;;;;;;5098618;28;20468;-90
2022/04/18 10:18:48;;;;;;;22.37;21.07;;;;;;;;;;5101033;28;20419;-85
2022/04/18 10:21:23;;;;;;;54.87;49.77;;;;;;;;;;5100767;28;20431;-91
2022/04/18 10:24:12;;;;;;;27.80;26.20;;;;;;;;;;5103621;28;20545;-87
2022/04/18 10:26:57;;;;;;;23.73;22.33;;;;;;;;;;5102064;28;20420;-91
2022/04/18 10:29:25;;;;;;;23.67;22.37;;;;;;;;;;5098967;28;20435;-92
2022/04/18 10:31:53;;;;;;;23.70;22.43;;;;;;;;;;5101930;28;20453;-94
2022/04/18 10:34:22;;;;;;;23.13;21.80;;;;;;;;;;5097575;28;20423;-94
2022/04/18 10:36:53;;;;;;;23.80;22.40;;;;;;;;;;5099630;28;20438;-94
2022/04/18 10:39:20;;;;;;;22.57;21.37;;;;;;;;;;5103221;28;20481;-94
2022/04/18 10:41:48;;;;;;;24.50;22.90;;;;;;;;;;5097267;28;20522;-94
2022/04/18 10:44:18;;;;;;;23.53;22.03;;;;;;;;;;5099158;28;20925;-95
2022/04/18 10:47:03;;;;;;;23.20;21.87;;;;;;;;;;5099124;28;20453;-94
2022/04/18 10:49:32;;;;;;;23.10;21.70;;;;;;;;;;5104490;28;20454;-94
2022/04/18 10:52:08;;;;;;;23.57;22.17;;;;;;;;;;5100982;28;20473;-94
2022/04/18 10:54:36;;;;;;;23.70;22.20;;;;;;;;;;5100179;28;20441;-94
2022/04/18 10:57:06;;;;;;;23.03;21.73;;;;;;;;;;5100820;28;20456;-94
2022/04/18 10:59:35;;;;;;;25.03;23.53;;;;;;;;;;5099778;28;20495;-92
2022/04/18 11:02:03;;;;;;;23.40;22.10;;;;;;;;;;5097141;28;20462;-92
2022/04/18 11:04:31;;;;;;;23.50;22.10;;;;;;;;;;5098096;28;20448;-92
2022/04/18 11:07:00;;;;;;;23.20;21.80;;;;;;;;;;5099729;28;20495;-92
2022/04/18 11:09:28;;;;;;;22.53;21.23;;;;;;;;;;5099107;28;20501;-92
2022/04/18 11:12:00;;;;;;;22.57;21.27;;;;;;;;;;5102990;28;20485;-92
2022/04/18 11:14:29;;;;;;;22.93;21.63;;;;;;;;;;5098878;28;20484;-92
2022/04/18 11:17:00;;;;;;;22.40;21.10;;;;;;;;;;5097857;28;20485;-91
2022/04/18 11:19:28;;;;;;;22.40;21.10;;;;;;;;;;5101317;28;20430;-93
2022/04/18 11:22:10;;;;;;;22.40;21.10;;;;;;;;;;5099142;28;20792;-93
2022/04/18 11:24:38;;;;;;;23.80;22.30;;;;;;;;;;5098608;28;21015;-93
2022/04/18 11:27:07;;;;;;;23.10;21.70;;;;;;;;;;5098359;28;20917;-93
2022/04/18 11:29:35;;;;;;;23.10;21.80;;;;;;;;;;5097385;28;20506;-93
2022/04/18 11:32:04;;;;;;;23.70;22.27;;;;;;;;;;5099008;28;20806;-92
2022/04/18 11:34:32;;;;;;;22.10;20.83;;;;;;;;;;5097046;28;20935;-92
2022/04/18 11:37:00;;;;;;;23.33;21.93;;;;;;;;;;5100965;28;20445;-94
2022/04/18 11:39:42;;;;;;;23.27;21.97;;;;;;;;;;5097668;28;20419;-93
2022/04/18 11:42:10;;;;;;;23.40;22.00;;;;;;;;;;5098701;28;20450;-93
2022/04/18 11:44:40;;;;;;;24.70;23.17;;;;;;;;;;5098803;28;20424;-93
2022/04/18 11:47:10;;;;;;;24.57;22.93;;;;;;;;;;5101488;28;20460;-93
2022/04/18 11:49:38;;;;;;;23.50;22.20;;;;;;;;;;5103929;28;20457;-92
2022/04/18 11:52:06;;;;;;;24.07;22.60;;;;;;;;;;5102626;28;20505;-91
2022/04/18 11:54:33;;;;;;;24.03;22.63;;;;;;;;;;5103269;28;20538;-92
2022/04/18 11:57:01;;;;;;;24.83;23.10;;;;;;;;;;5102756;28;20469;-90
2022/04/18 11:59:29;;;;;;;23.77;22.37;;;;;;;;;;5102343;28;20432;-91
2022/04/18 12:07:28;;;;;;;23.30;21.90;;;;;;;;;;5102701;28;20412;-91
2022/04/18 12:09:55;;;;;;;23.00;21.60;;;;;;;;;;5101879;28;21020;-91
2022/04/18 12:12:32;;;;;;;23.00;21.70;;;;;;;;;;5101971;28;20461;-91
2022/04/18 12:15:03;;;;;;;23.77;22.37;;;;;;;;;;5104822;28;20478;-91
2022/04/18 12:17:30;;;;;;;24.37;22.87;;;;;;;;;;5104803;28;20440;-92
2022/04/18 12:19:59;;;;;;;23.87;22.37;;;;;;;;;;5101667;28;20442;-91
2022/04/18 12:22:26;;;;;;;24.50;22.90;;;;;;;;;;5103929;28;20445;-91
2022/04/18 12:24:54;;;;;;;22.83;21.53;;;;;;;;;;5102144;28;20461;-91
2022/04/18 12:27:37;;;;;;;24.53;23.03;;;;;;;;;;5103119;28;20439;-91
2022/04/18 12:30:05;;;;;;;23.13;21.73;;;;;;;;;;5099810;28;20424;-90
2022/04/18 12:32:38;;;;;;;23.67;22.27;;;;;;;;;;5105343;28;20439;-91
2022/04/18 12:35:07;;;;;;;22.60;21.20;;;;;;;;;;5103926;28;20422;-91
2022/04/18 12:37:35;;;;;;;23.70;22.40;;;;;;;;;;5101195;28;20421;-90
2022/04/18 12:40:12;;;;;;;22.50;21.20;;;;;;;;;;5101844;28;20407;-91
2022/04/18 12:42:40;;;;;;;22.90;21.60;;;;;;;;;;5099460;28;20432;-91
2022/04/18 12:45:08;;;;;;;23.20;21.63;;;;;;;;;;5104603;28;20445;-91
2022/04/18 12:47:35;;;;;;;23.30;22.00;;;;;;;;;;5101017;28;20473;-91
2022/04/18 12:50:09;;;;;;;24.93;23.07;;;;;;;;;;5098344;28;20431;-91
2022/04/18 12:52:46;;;;;;;23.10;21.80;;;;;;;;;;5101509;28;20428;-90
2022/04/18 12:55:14;;;;;;;22.80;21.40;;;;;;;;;;5101940;28;20548;-91
2022/04/18 12:57:41;;;;;;;23.40;21.87;;;;;;;;;;5102687;28;20431;-91
2022/04/18 13:00:09;;;;;;;22.93;21.30;;;;;;;;;;5100111;28;20488;-91
2022/04/18 13:02:37;;;;;;;23.37;21.97;;;;;;;;;;5099253;28;20518;-90
2022/04/18 13:05:04;;;;;;;22.70;21.40;;;;;;;;;;5099628;28;20835;-91
2022/04/18 13:07:38;;;;;;;23.40;22.10;;;;;;;;;;5105189;28;20439;-92
2022/04/18 13:10:06;;;;;;;23.53;22.17;;;;;;;;;;5102194;28;20456;-91
2022/04/18 13:12:34;;;;;;;22.60;21.10;;;;;;;;;;5102405;28;20456;-91
2022/04/18 13:15:04;;;;;;;21.90;20.50;;;;;;;;;;5105112;28;20419;-91
2022/04/18 13:17:33;;;;;;;22.57;21.23;;;;;;;;;;5102249;28;20444;-90
2022/04/18 13:20:00;;;;;;;23.73;22.33;;;;;;;;;;5102383;28;20981;-87
2022/04/18 13:22:28;;;;;;;21.67;20.47;;;;;;;;;;5102067;28;20485;-90
2022/04/18 13:24:58;;;;;;;23.07;21.77;;;;;;;;;;5101477;28;20516;-92
2022/04/18 13:27:26;;;;;;;22.77;21.47;;;;;;;;;;5097476;28;20428;-91
2022/04/18 13:29:53;;;;;;;22.70;21.40;;;;;;;;;;5101222;28;20432;-90
2022/04/18 13:32:23;;;;;;;23.83;21.83;;;;;;;;;;5101141;28;20465;-92
2022/04/18 13:34:50;;;;;;;22.77;21.47;;;;;;;;;;5102276;28;20549;-91
2022/04/18 13:37:17;;;;;;;22.93;21.63;;;;;;;;;;5100746;28;20432;-91
2022/04/18 13:39:47;;;;;;;22.60;21.40;;;;;;;;;;5103510;28;20440;-91
2022/04/18 13:42:17;;;;;;;23.13;21.83;;;;;;;;;;5101171;28;20922;-84
2022/04/18 13:44:44;;;;;;;22.23;21.03;;;;;;;;;;5100390;28;20463;-85
2022/04/18 13:47:12;;;;;;;22.60;21.37;;;;;;;;;;5099747;28;20432;-85
2022/04/18 13:49:40;;;;;;;23.07;21.80;;;;;;;;;;5101147;28;20463;-86
2022/04/18 13:52:09;;;;;;;23.20;21.90;;;;;;;;;;5101917;28;20781;-85
2022/04/18 13:54:38;;;;;;;23.10;21.80;;;;;;;;;;5100255;28;20515;-85
2022/04/18 13:57:06;;;;;;;23.40;22.10;;;;;;;;;;5099607;28;20453;-85
2022/04/18 13:59:35;;;;;;;23.77;22.17;;;;;;;;;;5100155;28;20510;-85
2022/04/18 14:02:03;;;;;;;22.80;21.50;;;;;;;;;;5102899;28;20416;-84
2022/04/18 14:04:30;;;;;;;23.43;21.90;;;;;;;;;;5099118;28;20504;-83
2022/04/18 14:06:57;;;;;;;24.03;22.63;;;;;;;;;;5101009;28;20449;-85
2022/04/18 14:09:25;;;;;;;22.40;21.17;;;;;;;;;;5102154;28;20428;-91
2022/04/18 14:11:52;;;;;;;23.20;21.90;;;;;;;;;;5100442;28;20543;-90
2022/04/18 14:22:37;;;;;;;23.47;22.17;;;;;;;;;;5100896;28;20566;-89
2022/04/18 14:25:04;;;;;;;23.07;21.87;;;;;;;;;;5098756;28;21097;-92
2022/04/18 14:27:31;;;;;;;23.70;22.40;;;;;;;;;;5102881;28;20427;-94
2022/04/18 14:29:59;;;;;;;23.90;22.60;;;;;;;;;;5097680;28;20457;-93
2022/04/18 14:32:28;;;;;;;24.80;23.43;;;;;;;;;;5099930;28;20428;-93
2022/04/18 14:34:56;;;;;;;24.50;23.13;;;;;;;;;;5101800;28;20464;-93
2022/04/18 14:37:24;;;;;;;23.87;22.57;;;;;;;;;;5101843;28;20459;-94
2022/04/18 14:39:52;;;;;;;24.00;22.80;;;;;;;;;;5098036;28;20866;-92
2022/04/18 14:42:19;;;;;;;24.13;22.83;;;;;;;;;;5102358;28;20481;-93
2022/04/18 14:44:46;;;;;;;24.00;22.70;;;;;;;;;;5099305;28;20546;-93
2022/04/18 14:47:14;;;;;;;22.90;21.60;;;;;;;;;;5101408;28;20476;-94
2022/04/18 14:49:42;;;;;;;23.00;21.70;;;;;;;;;;5100051;28;20464;-93